Portada
METAR-TAF:

METAR-TAF

Aeroports :

Port Sudan, Sudan

latitud: 19-26N, longitud: 037-14E, altitud: 138 m

METAR: manca

Hora: 03:41 (01:41 UTC)

Pronòstic

L'informe es va fer fa 8 hores i 41 minuts, a les 17:00 UTC
Pronòstic vàlid del 25 a les 18 UTC al 26 a les 24 UTC
Vent 13 kt del Sud-Est
Visibilitat 10 km o més
sense núvols per sota de 1500 mi sense presència de cumulonimbus.
Evolucionant progressivament
l' 25 a les 21 UTC al 25 a les 23 UTC
Vent 9 kt del Nord-Oest

TAF: HSPN 251700Z 2518/2624 14013KT CAVOK BECMG 2521/2523 32009KT

Observacions i pronòstics meteorològics de més de 4000 aeroports (METAR i TAF).

Les estacions disponibles són els punts grocs i vermells al mapa.

Posi el ratolí al punt desitjat per veure el nom de l'estació.

Feu clic per veure les observacions i els pronòstics meteorològics.

Per canviar el mapa: feu clic els botons verds amb una creu de color negre per apropar; al botó verd amb un guió per allunyar la imatge; o en les fletxes verdes per a mapes adjacents.


METAR-TAF: